createdAt,value
2022-08-05T00:01:56.604Z,42.69
2022-08-05T00:04:37.348Z,42.92
2022-08-05T00:07:26.763Z,42.78
2022-08-05T00:09:59.095Z,42.92
2022-08-05T00:12:28.469Z,43.19
2022-08-05T00:14:57.759Z,43.61
2022-08-05T00:17:27.002Z,43.86
2022-08-05T00:20:02.043Z,43.70
2022-08-05T00:22:32.379Z,44.42
2022-08-05T00:25:02.073Z,44.34
2022-08-05T00:27:37.680Z,44.31
2022-08-05T00:30:12.999Z,44.32
2022-08-05T00:32:42.381Z,44.63
2022-08-05T00:35:12.026Z,44.72
2022-08-05T00:37:52.313Z,44.71
2022-08-05T00:40:26.931Z,45.43
2022-08-05T00:43:02.239Z,45.22
2022-08-05T00:45:42.952Z,45.33
2022-08-05T00:48:15.772Z,44.93
2022-08-05T00:50:47.702Z,45.46
2022-08-05T00:53:45.267Z,45.43
2022-08-05T00:56:08.834Z,45.63
2022-08-05T00:58:38.362Z,46.09
2022-08-05T01:01:08.880Z,46.23
2022-08-05T01:03:39.759Z,46.29
2022-08-05T01:06:11.213Z,46.33
2022-08-05T01:08:44.574Z,46.89
2022-08-05T01:11:22.213Z,47.29
2022-08-05T01:14:02.695Z,46.68
2022-08-05T01:16:46.718Z,47.06
2022-08-05T01:19:56.994Z,47.72
2022-08-05T01:22:41.641Z,47.78
2022-08-05T01:25:22.720Z,47.53
2022-08-05T01:28:19.010Z,47.79
2022-08-05T01:30:55.669Z,47.36
2022-08-05T01:33:35.446Z,47.70
2022-08-05T01:36:13.015Z,47.65
2022-08-05T01:38:48.448Z,47.75
2022-08-05T01:41:21.825Z,47.60
2022-08-05T01:43:53.093Z,47.93
2022-08-05T01:46:42.313Z,48.49
2022-08-05T01:49:22.924Z,48.41
2022-08-05T01:51:58.237Z,48.47
2022-08-05T01:54:31.318Z,48.63
2022-08-05T01:58:11.541Z,49.07
2022-08-05T01:59:54.438Z,49.37
2022-08-05T02:02:26.259Z,49.27
2022-08-05T02:05:00.711Z,50.00
2022-08-05T02:07:30.445Z,49.76
2022-08-05T02:10:00.502Z,49.84
2022-08-05T02:13:16.233Z,50.40
2022-08-05T02:15:48.668Z,49.65
2022-08-05T02:18:42.099Z,49.70
2022-08-05T02:21:21.483Z,49.32
2022-08-05T02:23:55.569Z,49.00
2022-08-05T02:26:28.714Z,48.76
2022-08-05T02:28:58.924Z,48.82
2022-08-05T02:31:34.624Z,48.88
2022-08-05T02:34:09.322Z,48.93
2022-08-05T02:36:42.747Z,48.94
2022-08-05T02:39:12.696Z,48.98
2022-08-05T02:42:00.797Z,48.86
2022-08-05T02:44:31.562Z,49.50
2022-08-05T02:47:01.606Z,49.52
2022-08-05T02:49:42.699Z,49.44
2022-08-05T02:52:29.303Z,48.94
2022-08-05T02:55:01.508Z,49.38
2022-08-05T02:58:09.912Z,49.82
2022-08-05T03:00:21.931Z,49.53
2022-08-05T03:02:51.488Z,49.40
2022-08-05T03:06:56.395Z,49.96
2022-08-05T03:08:13.600Z,50.45
2022-08-05T03:11:53.792Z,50.24
2022-08-05T03:13:51.758Z,50.06
2022-08-05T03:16:25.586Z,50.40
2022-08-05T03:18:57.388Z,50.58
2022-08-05T03:21:28.719Z,50.09
2022-08-05T03:23:58.362Z,50.74
2022-08-05T03:26:31.902Z,50.67
2022-08-05T03:29:01.883Z,50.90
2022-08-05T03:31:56.044Z,50.33
2022-08-05T03:34:24.301Z,50.53
2022-08-05T03:36:53.851Z,51.10
2022-08-05T03:39:27.210Z,51.13
2022-08-05T03:41:58.123Z,50.74
2022-08-05T03:44:29.015Z,50.97
2022-08-05T03:46:58.418Z,51.76
2022-08-05T03:49:51.058Z,51.65
2022-08-05T03:52:38.457Z,51.83
2022-08-05T03:56:05.391Z,51.58
2022-08-05T03:58:05.472Z,51.75
2022-08-05T04:00:35.174Z,52.26
2022-08-05T04:03:05.913Z,52.01
2022-08-05T04:05:37.039Z,51.96
2022-08-05T04:08:30.063Z,51.85
2022-08-05T04:11:01.825Z,51.65
2022-08-05T04:13:51.288Z,51.71
2022-08-05T04:16:25.494Z,51.70
2022-08-05T04:19:01.620Z,51.72
2022-08-05T04:22:08.789Z,51.13
2022-08-05T04:24:22.534Z,51.18
2022-08-05T04:26:52.525Z,50.56
2022-08-05T04:29:21.785Z,50.80
2022-08-05T04:31:52.708Z,50.66
2022-08-05T04:34:32.399Z,50.96
2022-08-05T04:37:03.087Z,51.09
2022-08-05T04:39:35.263Z,51.02
2022-08-05T04:42:04.841Z,51.02
2022-08-05T04:44:34.158Z,51.40
2022-08-05T04:47:08.817Z,51.40
2022-08-05T04:50:01.645Z,51.89
2022-08-05T04:52:29.234Z,51.47
2022-08-05T04:55:14.434Z,51.42
2022-08-05T04:57:47.684Z,51.28
2022-08-05T05:00:17.790Z,51.29
2022-08-05T05:02:47.235Z,51.39
2022-08-05T05:05:28.109Z,51.48
2022-08-05T05:08:06.210Z,51.33
2022-08-05T05:10:56.209Z,50.90
2022-08-05T05:13:26.184Z,50.71
2022-08-05T05:16:05.985Z,50.32
2022-08-05T05:18:36.427Z,49.84
2022-08-05T05:21:06.266Z,49.63
2022-08-05T05:24:02.460Z,49.62
2022-08-05T05:26:28.805Z,49.67
2022-08-05T05:29:02.550Z,51.09
2022-08-05T05:34:07.327Z,51.21
2022-08-05T05:36:37.442Z,51.52
2022-08-05T05:39:10.909Z,51.79
2022-08-05T05:41:41.778Z,52.94
2022-08-05T05:44:36.045Z,53.84
2022-08-05T05:47:04.261Z,54.64
2022-08-05T05:49:33.940Z,54.48
2022-08-05T05:52:07.343Z,55.12
2022-08-05T05:54:51.056Z,55.26
2022-08-05T05:57:20.668Z,54.82
2022-08-05T05:59:50.037Z,54.92
2022-08-05T06:02:32.318Z,54.89
2022-08-05T06:05:10.494Z,54.79
2022-08-05T06:07:57.976Z,54.88
2022-08-05T06:10:36.256Z,55.19
2022-08-05T06:13:06.079Z,55.80
2022-08-05T06:16:27.294Z,55.34
2022-08-05T06:18:31.196Z,55.87
2022-08-05T06:21:00.978Z,57.35
2022-08-05T06:23:32.115Z,56.55
2022-08-05T06:26:21.462Z,56.69
2022-08-05T06:28:53.105Z,56.98
2022-08-05T06:31:22.646Z,57.27
2022-08-05T06:34:07.881Z,56.69
2022-08-05T06:36:56.983Z,56.63
2022-08-05T06:39:28.336Z,56.46
2022-08-05T06:42:01.469Z,56.27
2022-08-05T06:44:33.551Z,56.40
2022-08-05T06:47:02.911Z,56.38
2022-08-05T06:50:01.317Z,56.31
2022-08-05T06:52:36.647Z,56.09
2022-08-05T06:55:08.485Z,55.27
2022-08-05T06:58:03.092Z,55.13
2022-08-05T07:00:27.272Z,55.27
2022-08-05T07:02:58.965Z,55.62
2022-08-05T07:05:37.387Z,54.79
2022-08-05T07:08:10.034Z,54.57
2022-08-05T07:10:53.222Z,54.56
2022-08-05T07:13:59.468Z,53.53
2022-08-05T07:18:08.337Z,53.25
2022-08-05T07:22:22.199Z,52.06
2022-08-05T07:24:58.716Z,52.11
2022-08-05T07:27:58.852Z,52.13
2022-08-05T07:30:24.297Z,51.95
2022-08-05T07:32:55.229Z,52.32
2022-08-05T07:36:02.052Z,52.71
2022-08-05T07:38:33.741Z,52.19
2022-08-05T07:42:08.968Z,52.16
2022-08-05T07:43:59.627Z,51.79
2022-08-05T07:46:30.815Z,52.00
2022-08-05T07:49:05.528Z,51.25
2022-08-05T07:51:53.199Z,50.12
2022-08-05T07:54:31.042Z,49.91
2022-08-05T07:57:22.539Z,49.72
2022-08-05T07:59:53.669Z,49.62
2022-08-05T08:02:30.732Z,48.85
2022-08-05T08:05:00.809Z,48.28
2022-08-05T08:07:39.757Z,48.44
2022-08-05T08:10:20.479Z,48.71
2022-08-05T08:12:50.307Z,48.40
2022-08-05T08:16:33.366Z,48.42
2022-08-05T08:18:13.877Z,47.90
2022-08-05T08:21:02.683Z,48.72
2022-08-05T08:24:01.605Z,48.77
2022-08-05T08:26:26.811Z,47.65
2022-08-05T08:29:29.252Z,46.89
2022-08-05T08:31:48.516Z,47.24
2022-08-05T08:34:18.533Z,47.48
2022-08-05T08:36:54.665Z,46.79
2022-08-05T08:39:25.999Z,47.14
2022-08-05T08:41:59.903Z,46.96
2022-08-05T08:45:24.221Z,46.26
2022-08-05T08:48:06.233Z,46.63
2022-08-05T08:50:30.935Z,46.91
2022-08-05T08:53:12.140Z,46.17
2022-08-05T08:56:05.016Z,46.27
2022-08-05T08:58:43.927Z,46.09
2022-08-05T09:01:18.205Z,44.78
2022-08-05T09:03:57.337Z,45.68
2022-08-05T09:06:32.169Z,45.55
2022-08-05T09:09:05.732Z,44.81
2022-08-05T09:11:52.416Z,43.94
2022-08-05T09:14:56.937Z,43.75
2022-08-05T09:17:40.052Z,44.25
2022-08-05T09:20:05.201Z,44.57
2022-08-05T09:23:18.460Z,44.04
2022-08-05T09:26:01.629Z,44.53
2022-08-05T09:28:34.695Z,45.00
2022-08-05T09:31:43.666Z,44.57
2022-08-05T09:34:03.262Z,43.99
2022-08-05T09:36:56.447Z,43.87
2022-08-05T09:39:44.708Z,44.57
2022-08-05T09:42:24.302Z,43.98
2022-08-05T09:45:17.293Z,44.14
2022-08-05T09:47:56.062Z,43.73
2022-08-05T09:50:44.645Z,43.21
2022-08-05T09:53:22.721Z,44.77
2022-08-05T09:56:11.363Z,44.16
2022-08-05T09:58:42.514Z,44.81
2022-08-05T10:01:22.592Z,44.13
2022-08-05T10:04:12.454Z,44.73
2022-08-05T10:06:49.933Z,43.70
2022-08-05T10:09:29.312Z,43.22
2022-08-05T10:12:18.621Z,42.99
2022-08-05T10:15:20.932Z,43.29
2022-08-05T10:18:23.073Z,43.45
2022-08-05T10:21:08.395Z,43.73
2022-08-05T10:23:59.846Z,43.31
2022-08-05T10:26:32.386Z,44.31
2022-08-05T10:29:03.186Z,44.23
2022-08-05T10:32:52.141Z,43.53
2022-08-05T10:34:25.854Z,42.81
2022-08-05T10:37:00.799Z,42.89
2022-08-05T10:39:58.931Z,42.35
2022-08-05T10:42:33.741Z,42.43
2022-08-05T10:45:21.326Z,42.52
2022-08-05T10:48:31.114Z,43.01
2022-08-05T10:51:01.957Z,41.37
2022-08-05T10:53:46.608Z,40.54
2022-08-05T10:56:25.329Z,40.26
2022-08-05T10:59:07.278Z,40.74
2022-08-05T11:01:55.522Z,40.20
2022-08-05T11:04:36.637Z,40.70
2022-08-05T11:07:11.935Z,40.03
2022-08-05T11:10:03.942Z,39.55
2022-08-05T11:12:42.238Z,40.12
2022-08-05T11:15:23.385Z,39.86
2022-08-05T11:18:32.583Z,39.91
2022-08-05T11:21:11.393Z,40.20
2022-08-05T11:24:04.750Z,39.40
2022-08-05T11:26:49.437Z,40.11
2022-08-05T11:29:41.239Z,39.89
2022-08-05T11:32:30.037Z,39.74
2022-08-05T11:35:00.258Z,40.00
2022-08-05T11:38:29.748Z,40.08
2022-08-05T11:41:36.799Z,38.95
2022-08-05T11:44:06.730Z,39.78
2022-08-05T11:47:10.450Z,38.89
2022-08-05T11:49:49.738Z,38.36
2022-08-05T11:52:29.345Z,37.24
2022-08-05T11:55:07.611Z,36.94
2022-08-05T11:58:08.289Z,37.38
2022-08-05T12:00:38.146Z,36.03
2022-08-05T12:03:28.586Z,35.51
2022-08-05T12:06:09.891Z,34.84
2022-08-05T12:08:49.737Z,36.86
2022-08-05T12:11:23.042Z,37.06
2022-08-05T12:14:03.886Z,36.41
2022-08-05T12:16:39.014Z,36.52
2022-08-05T12:19:10.045Z,36.85
2022-08-05T12:21:59.341Z,37.33
2022-08-05T12:24:30.710Z,37.25
2022-08-05T12:27:00.165Z,36.98
2022-08-05T12:29:39.649Z,37.39
2022-08-05T12:32:09.946Z,38.02
2022-08-05T12:34:40.519Z,38.59
2022-08-05T12:37:17.534Z,37.07
2022-08-05T12:39:53.961Z,36.83
2022-08-05T12:42:25.246Z,35.50
2022-08-05T12:44:54.789Z,36.24
2022-08-05T12:47:31.421Z,36.08
2022-08-05T12:50:02.006Z,36.32
2022-08-05T12:52:41.951Z,36.51
2022-08-05T12:55:33.039Z,36.33
2022-08-05T12:58:50.460Z,36.57
2022-08-05T13:02:04.062Z,35.89
2022-08-05T13:03:45.556Z,35.79
2022-08-05T13:06:19.899Z,36.13
2022-08-05T13:08:52.333Z,36.31
2022-08-05T13:11:59.634Z,36.71
2022-08-05T13:14:38.323Z,35.72
2022-08-05T13:17:20.518Z,36.28
2022-08-05T13:20:09.181Z,35.98
2022-08-05T13:22:43.518Z,36.64
2022-08-05T13:25:19.406Z,36.67
2022-08-05T13:27:53.594Z,36.68
2022-08-05T13:30:35.066Z,36.90
2022-08-05T13:33:06.547Z,36.56
2022-08-05T13:35:47.114Z,36.02
2022-08-05T13:38:30.610Z,36.69
2022-08-05T13:41:03.904Z,36.70
2022-08-05T13:43:44.434Z,36.35
2022-08-05T13:47:01.960Z,36.90
2022-08-05T13:49:12.863Z,36.50
2022-08-05T13:51:46.513Z,36.32
2022-08-05T13:54:17.110Z,34.86
2022-08-05T13:56:51.992Z,35.26
2022-08-05T13:59:24.357Z,35.74
2022-08-05T14:01:58.337Z,35.98
2022-08-05T14:04:52.063Z,35.87
2022-08-05T14:07:26.056Z,36.03
2022-08-05T14:10:28.529Z,35.56
2022-08-05T14:12:58.494Z,35.98
2022-08-05T14:16:05.573Z,35.60
2022-08-05T14:18:22.971Z,36.10
2022-08-05T14:20:55.141Z,35.93
2022-08-05T14:23:26.439Z,35.69
2022-08-05T14:25:59.848Z,35.86
2022-08-05T14:28:33.325Z,35.85
2022-08-05T14:31:03.983Z,35.62
2022-08-05T14:33:59.662Z,35.71
2022-08-05T14:36:29.668Z,36.04
2022-08-05T14:38:59.616Z,36.15
2022-08-05T14:41:32.118Z,36.60
2022-08-05T14:44:20.075Z,36.28
2022-08-05T14:46:50.946Z,36.58
2022-08-05T14:49:20.329Z,36.54
2022-08-05T14:51:49.836Z,35.80
2022-08-05T14:54:28.681Z,36.56
2022-08-05T14:56:59.771Z,36.64
2022-08-05T14:59:35.698Z,36.70
2022-08-05T15:02:14.809Z,36.42
2022-08-05T15:04:47.900Z,36.56
2022-08-05T15:08:05.719Z,36.68
2022-08-05T15:10:10.125Z,36.15
2022-08-05T15:13:00.306Z,36.41
2022-08-05T15:15:54.117Z,36.35
2022-08-05T15:18:19.166Z,36.02
2022-08-05T15:20:48.922Z,36.10
2022-08-05T15:23:18.556Z,36.07
2022-08-05T15:25:52.098Z,35.52
2022-08-05T15:28:27.370Z,36.17
2022-08-05T15:30:57.733Z,35.55
2022-08-05T15:34:05.144Z,35.86
2022-08-05T15:36:17.578Z,35.88
2022-08-05T15:40:58.761Z,35.18
2022-08-05T15:41:56.247Z,36.05
2022-08-05T15:44:30.346Z,35.53
2022-08-05T15:47:00.390Z,35.54
2022-08-05T15:49:48.007Z,35.79
2022-08-05T15:52:52.231Z,36.38
2022-08-05T15:55:15.981Z,36.87
2022-08-05T15:57:48.014Z,37.30
2022-08-05T16:00:26.005Z,36.88
2022-08-05T16:03:02.297Z,37.22
2022-08-05T16:05:31.610Z,36.71
2022-08-05T16:08:00.865Z,37.13
2022-08-05T16:10:30.485Z,37.61
2022-08-05T16:13:00.322Z,37.41
2022-08-05T16:15:32.615Z,37.67
2022-08-05T16:18:04.343Z,37.66
2022-08-05T16:20:38.462Z,37.59
2022-08-05T16:23:08.679Z,37.69
2022-08-05T16:25:38.786Z,38.37
2022-08-05T16:28:10.393Z,38.27
2022-08-05T16:30:41.597Z,38.23
2022-08-05T16:33:11.070Z,38.47
2022-08-05T16:35:42.338Z,38.36
2022-08-05T16:38:18.776Z,38.42
2022-08-05T16:41:00.891Z,38.69
2022-08-05T16:43:34.246Z,39.00
2022-08-05T16:46:23.584Z,39.02
2022-08-05T16:48:53.818Z,38.48
2022-08-05T16:51:24.985Z,38.87
2022-08-05T16:54:04.019Z,38.62
2022-08-05T16:56:36.406Z,38.90
2022-08-05T16:59:09.061Z,39.06
2022-08-05T17:01:54.477Z,39.22
2022-08-05T17:04:27.421Z,41.40
2022-08-05T17:07:01.209Z,42.54
2022-08-05T17:09:57.150Z,44.14
2022-08-05T17:12:51.834Z,46.49
2022-08-05T17:15:15.717Z,46.93
2022-08-05T17:17:55.148Z,48.22
2022-08-05T17:20:24.943Z,49.03
2022-08-05T17:22:55.501Z,49.62
2022-08-05T17:25:39.533Z,50.89
2022-08-05T17:28:09.918Z,50.77
2022-08-05T17:30:50.692Z,51.37
2022-08-05T17:33:21.871Z,52.33
2022-08-05T17:36:08.783Z,53.02
2022-08-05T17:38:39.844Z,53.76
2022-08-05T17:41:22.968Z,54.89
2022-08-05T17:43:58.561Z,55.76
2022-08-05T17:46:28.230Z,56.07
2022-08-05T17:48:58.010Z,56.47
2022-08-05T17:51:27.431Z,56.70
2022-08-05T17:53:56.664Z,57.50
2022-08-05T17:56:28.412Z,58.11
2022-08-05T17:58:57.876Z,58.79
2022-08-05T18:01:27.307Z,59.65
2022-08-05T18:03:59.232Z,59.52
2022-08-05T18:06:34.264Z,60.03
2022-08-05T18:09:04.031Z,60.98
2022-08-05T18:11:33.992Z,60.45
2022-08-05T18:14:07.410Z,60.85
2022-08-05T18:16:46.775Z,61.43
2022-08-05T18:19:23.216Z,60.97
2022-08-05T18:22:09.726Z,60.76
2022-08-05T18:24:40.969Z,61.25
2022-08-05T18:27:18.269Z,60.98
2022-08-05T18:29:53.635Z,61.19
2022-08-05T18:32:27.849Z,61.78
2022-08-05T18:34:57.928Z,61.46
2022-08-05T18:37:34.006Z,61.13
2022-08-05T18:40:34.046Z,61.13
2022-08-05T18:42:59.234Z,61.39
2022-08-05T18:45:41.904Z,61.32
2022-08-05T18:48:30.249Z,61.13
2022-08-05T18:52:04.970Z,60.99
2022-08-05T18:54:02.925Z,60.94
2022-08-05T18:56:32.209Z,61.01
2022-08-05T18:59:01.953Z,61.00
2022-08-05T19:01:56.961Z,61.18
2022-08-05T19:04:29.402Z,61.03
2022-08-05T19:06:58.909Z,60.91
2022-08-05T19:09:28.152Z,60.90
2022-08-05T19:12:08.767Z,60.15
2022-08-05T19:15:00.011Z,59.85
2022-08-05T19:17:59.464Z,59.82
2022-08-05T19:20:19.071Z,59.94
2022-08-05T19:22:50.041Z,60.12
2022-08-05T19:25:30.235Z,59.70
2022-08-05T19:28:00.533Z,59.68
2022-08-05T19:30:29.970Z,59.71
2022-08-05T19:32:59.224Z,59.58
2022-08-05T19:35:55.670Z,60.14
2022-08-05T19:38:21.508Z,59.34
2022-08-05T19:40:55.865Z,59.53
2022-08-05T19:44:06.134Z,59.55
2022-08-05T19:46:16.747Z,59.19
2022-08-05T19:49:02.810Z,59.34
2022-08-05T19:52:04.498Z,58.92
2022-08-05T19:54:31.272Z,58.84
2022-08-05T19:57:06.273Z,58.71
2022-08-05T19:59:59.352Z,58.58
2022-08-05T20:02:27.803Z,58.63
2022-08-05T20:04:58.344Z,58.54
2022-08-05T20:07:48.120Z,58.38
2022-08-05T20:10:22.347Z,58.17
2022-08-05T20:12:55.156Z,57.73
2022-08-05T20:15:52.093Z,57.54
2022-08-05T20:18:33.375Z,57.80
2022-08-05T20:21:04.659Z,57.56
2022-08-05T20:23:39.569Z,57.53
2022-08-05T20:26:20.341Z,57.28
2022-08-05T20:28:52.769Z,57.74
2022-08-05T20:31:37.632Z,57.37
2022-08-05T20:34:12.786Z,57.38
2022-08-05T20:36:43.535Z,57.57
2022-08-05T20:39:16.343Z,57.46
2022-08-05T20:41:47.882Z,57.14
2022-08-05T20:44:29.004Z,57.43
2022-08-05T20:47:01.040Z,57.27
2022-08-05T20:49:30.328Z,56.79
2022-08-05T20:52:07.785Z,56.95
2022-08-05T20:54:59.488Z,56.80
2022-08-05T20:57:43.832Z,56.74
2022-08-05T21:00:40.376Z,56.53
2022-08-05T21:03:08.064Z,56.58
2022-08-05T21:05:53.708Z,56.45
2022-08-05T21:08:42.086Z,56.92
2022-08-05T21:12:07.086Z,56.40
2022-08-05T21:14:03.449Z,56.68
2022-08-05T21:16:34.946Z,56.44
2022-08-05T21:19:04.803Z,55.85
2022-08-05T21:21:39.619Z,56.03
2022-08-05T21:24:15.619Z,55.18
2022-08-05T21:26:53.612Z,55.42
2022-08-05T21:29:31.741Z,55.70
2022-08-05T21:32:02.376Z,55.72
2022-08-05T21:34:32.962Z,54.89
2022-08-05T21:37:05.049Z,54.39
2022-08-05T21:39:34.861Z,54.38
2022-08-05T21:42:40.845Z,54.65
2022-08-05T21:44:59.134Z,54.37
2022-08-05T21:47:54.913Z,54.20
2022-08-05T21:50:18.324Z,54.17
2022-08-05T21:52:47.645Z,53.89
2022-08-05T21:55:17.313Z,54.06
2022-08-05T21:57:46.734Z,54.91
2022-08-05T22:00:16.451Z,55.17
2022-08-05T22:02:46.081Z,55.11
2022-08-05T22:05:15.763Z,55.61
2022-08-05T22:07:59.241Z,55.28
2022-08-05T22:10:31.692Z,55.39
2022-08-05T22:13:58.854Z,55.59
2022-08-05T22:16:01.294Z,55.46
2022-08-05T22:18:34.075Z,55.36
2022-08-05T22:21:04.202Z,55.32
2022-08-05T22:24:01.134Z,56.03
2022-08-05T22:26:49.979Z,56.59
2022-08-05T22:29:26.718Z,56.80
2022-08-05T22:32:02.670Z,57.42
2022-08-05T22:34:32.638Z,59.36
2022-08-05T22:37:03.986Z,59.91
2022-08-05T22:39:34.880Z,60.07
2022-08-05T22:42:12.676Z,61.28
2022-08-05T22:44:48.450Z,63.42
2022-08-05T22:47:29.699Z,65.92
2022-08-05T22:50:20.635Z,65.31
2022-08-05T22:52:51.417Z,66.99
2022-08-05T22:55:22.488Z,67.87
2022-08-05T22:57:53.615Z,73.46
2022-08-05T23:00:26.545Z,76.13
2022-08-05T23:02:56.595Z,75.64
2022-08-05T23:05:27.438Z,74.22
2022-08-05T23:07:56.899Z,77.01
2022-08-05T23:10:26.332Z,74.57
2022-08-05T23:12:56.377Z,76.41
2022-08-05T23:15:29.380Z,76.44
2022-08-05T23:18:06.106Z,75.49
2022-08-05T23:20:43.133Z,76.75
2022-08-05T23:23:12.734Z,76.74
2022-08-05T23:25:54.959Z,75.82
2022-08-05T23:28:29.105Z,76.66
2022-08-05T23:31:02.238Z,76.84
2022-08-05T23:34:02.993Z,78.01
2022-08-05T23:36:40.197Z,77.27
2022-08-05T23:39:17.202Z,79.50
2022-08-05T23:41:53.898Z,78.73
2022-08-05T23:44:27.944Z,80.52
2022-08-05T23:47:02.575Z,78.64
2022-08-05T23:49:43.634Z,81.00
2022-08-05T23:52:30.759Z,80.33
2022-08-05T23:55:11.964Z,80.53
2022-08-05T23:57:42.546Z,78.17
